Time;durP1;ratioP1;P1;durP2;ratioP2;P2;SDS_P1;SDS_P2;PMS_P1;PMS_P2;Temp;Humidity;BMP_temperature;BMP_pressure;BME280_temperature;BME280_humidity;BME280_pressure;Samples;Min_cycle;Max_cycle;Signal;HPM_P1;HPM_P2
2022/03/31 00:01:33;;;;;;;3.95;0.82;;;4.20;99.90;;;;;;5109461;27;20031;-78
2022/03/31 00:03:59;;;;;;;5.90;1.23;;;4.10;99.90;;;;;;5095399;28;20040;-77
2022/03/31 00:06:25;;;;;;;6.05;0.88;;;4.10;99.90;;;;;;5104123;27;20047;-77
2022/03/31 00:08:50;;;;;;;7.60;0.90;;;4.00;99.90;;;;;;5101003;28;20031;-77
2022/03/31 00:11:17;;;;;;;4.38;1.02;;;4.00;99.90;;;;;;5087715;28;20040;-79
2022/03/31 00:13:45;;;;;;;4.32;0.93;;;3.90;99.90;;;;;;5103246;28;20036;-78
2022/03/31 00:16:11;;;;;;;4.15;0.75;;;3.90;99.90;;;;;;5088654;28;20114;-80
2022/03/31 00:18:37;;;;;;;5.00;1.10;;;3.80;99.90;;;;;;5103100;28;20123;-79
2022/03/31 00:21:03;;;;;;;3.97;0.77;;;3.80;99.90;;;;;;5088175;28;20131;-77
2022/03/31 00:23:29;;;;;;;10.85;1.20;;;3.80;99.90;;;;;;5103834;28;20668;-77
2022/03/31 00:25:55;;;;;;;3.72;1.00;;;3.80;99.90;;;;;;5089483;28;20044;-79
2022/03/31 00:28:22;;;;;;;9.05;0.90;;;3.70;99.90;;;;;;5089052;28;20047;-78
2022/03/31 00:30:48;;;;;;;9.45;1.00;;;4.30;99.90;;;;;;5111067;27;20063;-78
2022/03/31 00:33:14;;;;;;;3.30;0.68;;;3.80;99.90;;;;;;5115413;27;20125;-79
2022/03/31 00:35:40;;;;;;;6.97;1.00;;;3.80;99.90;;;;;;5088242;27;20313;-77
2022/03/31 00:38:06;;;;;;;9.38;0.90;;;3.80;99.90;;;;;;5106217;28;20406;-76
2022/03/31 00:40:32;;;;;;;7.57;1.00;;;3.70;99.90;;;;;;5105774;28;20055;-77
2022/03/31 00:42:59;;;;;;;4.00;1.02;;;3.70;99.90;;;;;;5088535;28;20048;-77
2022/03/31 00:45:34;;;;;;;6.28;0.98;;;3.60;99.90;;;;;;5106629;28;20457;-79
2022/03/31 00:48:01;;;;;;;8.13;1.08;;;3.70;99.90;;;;;;5091309;28;20126;-77
2022/03/31 00:50:27;;;;;;;3.10;0.80;;;3.70;99.90;;;;;;5089780;28;20100;-78
2022/03/31 00:52:54;;;;;;;7.63;0.90;;;3.60;99.90;;;;;;5089699;28;20448;-78
2022/03/31 00:55:20;;;;;;;7.15;1.02;;;3.60;99.90;;;;;;5089898;28;20069;-77
2022/03/31 00:57:48;;;;;;;4.10;0.80;;;3.60;99.90;;;;;;5089265;28;20040;-79
2022/03/31 01:00:17;;;;;;;5.43;0.75;;;3.50;99.90;;;;;;5113412;27;20044;-79
2022/03/31 01:02:44;;;;;;;3.50;0.98;;;3.60;99.90;;;;;;5111621;27;20055;-77
2022/03/31 01:05:11;;;;;;;3.00;0.70;;;3.60;99.90;;;;;;5093086;28;20061;-77
2022/03/31 01:07:38;;;;;;;3.72;0.85;;;3.60;99.90;;;;;;5115879;27;20045;-76
2022/03/31 01:10:05;;;;;;;4.07;0.90;;;3.60;99.90;;;;;;5124564;27;20081;-77
2022/03/31 01:12:32;;;;;;;6.18;0.73;;;3.50;99.90;;;;;;5115926;27;20074;-79
2022/03/31 01:15:06;;;;;;;3.85;1.00;;;3.50;99.90;;;;;;5081086;27;20126;-80
2022/03/31 01:17:33;;;;;;;5.47;0.88;;;3.50;99.90;;;;;;5111285;27;20035;-77
2022/03/31 01:19:59;;;;;;;3.03;0.90;;;3.40;99.90;;;;;;5112204;27;20451;-78
2022/03/31 01:22:27;;;;;;;10.18;1.27;;;3.40;99.90;;;;;;5121268;27;20045;-79
2022/03/31 01:24:54;;;;;;;2.50;1.38;;;3.40;99.90;;;;;;5114580;27;20064;-78
2022/03/31 01:27:19;;;;;;;3.42;1.20;;;3.40;99.90;;;;;;5092287;27;20041;-78
2022/03/31 01:29:45;;;;;;;3.40;1.27;;;3.50;99.90;;;;;;5113756;27;20128;-77
2022/03/31 01:32:11;;;;;;;4.07;1.90;;;3.50;99.90;;;;;;5119909;27;20162;-80
2022/03/31 01:34:37;;;;;;;2.67;1.95;;;3.50;99.90;;;;;;5096272;27;20087;-78
2022/03/31 01:37:04;;;;;;;6.85;2.42;;;3.50;99.90;;;;;;5112553;27;20047;-78
2022/03/31 01:39:30;;;;;;;5.63;2.67;;;3.60;99.90;;;;;;5101948;27;20069;-77
2022/03/31 01:41:55;;;;;;;6.35;2.80;;;3.40;99.90;;;;;;5117849;27;20458;-76
2022/03/31 01:44:21;;;;;;;9.00;3.13;;;3.40;99.90;;;;;;5117590;27;20031;-79
2022/03/31 01:46:48;;;;;;;7.40;3.00;;;3.40;99.90;;;;;;5114424;27;20027;-78
2022/03/31 01:49:13;;;;;;;8.88;3.20;;;3.50;99.90;;;;;;5122519;27;20124;-77
2022/03/31 01:51:39;;;;;;;4.93;3.30;;;3.40;99.90;;;;;;5118191;27;20048;-79
2022/03/31 01:54:05;;;;;;;5.57;2.90;;;3.40;99.90;;;;;;5102418;27;20125;-78
2022/03/31 01:56:31;;;;;;;8.77;3.22;;;3.40;99.90;;;;;;5120868;27;20047;-78
2022/03/31 01:58:57;;;;;;;8.38;3.58;;;3.50;99.90;;;;;;5122677;27;20466;-79
2022/03/31 02:01:23;;;;;;;6.18;3.25;;;3.40;99.90;;;;;;5105109;27;20371;-76
2022/03/31 02:03:48;;;;;;;6.40;3.50;;;3.40;99.90;;;;;;5121054;27;20119;-76
2022/03/31 02:06:14;;;;;;;6.15;3.30;;;3.50;99.90;;;;;;5103039;27;20173;-78
2022/03/31 02:08:40;;;;;;;10.27;4.53;;;3.40;99.90;;;;;;5097173;28;20411;-78
2022/03/31 02:11:05;;;;;;;7.72;3.40;;;3.40;99.90;;;;;;5095434;27;20051;-77
2022/03/31 02:13:31;;;;;;;7.18;4.00;;;3.40;99.90;;;;;;5096364;28;20056;-79
2022/03/31 02:15:57;;;;;;;9.65;3.83;;;3.50;99.90;;;;;;5098483;27;20048;-75
2022/03/31 02:18:22;;;;;;;7.07;4.28;;;3.40;99.90;;;;;;5122629;27;20117;-76
2022/03/31 02:20:48;;;;;;;6.18;4.43;;;3.40;99.90;;;;;;5108601;27;20118;-76
2022/03/31 02:23:14;;;;;;;8.98;4.43;;;3.30;99.90;;;;;;5115336;27;20419;-78
2022/03/31 02:25:39;;;;;;;8.38;4.30;;;3.40;99.90;;;;;;5119601;27;20462;-78
2022/03/31 02:28:05;;;;;;;6.63;4.32;;;3.40;99.90;;;;;;5115988;27;20537;-77
2022/03/31 02:30:31;;;;;;;11.75;4.38;;;3.40;99.90;;;;;;5121138;27;20122;-79
2022/03/31 02:32:59;;;;;;;8.32;4.38;;;3.40;99.90;;;;;;5104573;27;20046;-79
2022/03/31 02:35:25;;;;;;;7.65;4.80;;;3.40;99.90;;;;;;5082927;28;20105;-79
2022/03/31 02:37:51;;;;;;;13.45;5.82;;;3.40;99.90;;;;;;5078040;28;20336;-79
2022/03/31 02:40:17;;;;;;;11.75;5.97;;;3.30;99.90;;;;;;5112197;27;20089;-78
2022/03/31 02:42:42;;;;;;;7.55;5.25;;;3.30;99.90;;;;;;5110042;28;20043;-76
2022/03/31 02:45:08;;;;;;;9.10;5.60;;;3.30;99.90;;;;;;5113080;28;20089;-78
2022/03/31 02:47:35;;;;;;;9.40;5.35;;;3.30;99.90;;;;;;5112185;28;20040;-78
2022/03/31 02:50:02;;;;;;;10.00;5.78;;;3.30;99.90;;;;;;5094536;28;20058;-78
2022/03/31 02:55:24;;;;;;;10.35;5.93;;;3.30;99.90;;;;;;5094418;28;20047;-77
2022/03/31 02:55:25;;;;;;;10.20;7.15;;;3.30;99.90;;;;;;5109541;28;20103;-77
2022/03/31 02:57:52;;;;;;;8.88;5.97;;;3.30;99.90;;;;;;5093148;28;20097;-79
2022/03/31 03:00:19;;;;;;;9.75;7.68;;;3.20;99.90;;;;;;5094035;28;20054;-76
2022/03/31 03:02:45;;;;;;;8.73;6.70;;;3.10;99.90;;;;;;5111283;28;20136;-79
2022/03/31 03:05:11;;;;;;;8.23;5.15;;;3.10;99.90;;;;;;5113184;28;20407;-77
2022/03/31 03:07:37;;;;;;;5.78;4.80;;;3.10;99.90;;;;;;5110858;28;20043;-78
2022/03/31 03:10:03;;;;;;;6.28;4.38;;;3.10;99.90;;;;;;5110764;28;20054;-79
2022/03/31 03:12:28;;;;;;;7.43;5.25;;;3.00;99.90;;;;;;5110960;28;20425;-76
2022/03/31 03:14:54;;;;;;;6.97;4.50;;;3.00;99.90;;;;;;5112256;28;20093;-78
2022/03/31 03:17:20;;;;;;;5.40;4.72;;;3.10;99.90;;;;;;5093802;28;20428;-77
2022/03/31 03:19:45;;;;;;;8.15;5.32;;;3.10;99.90;;;;;;5085326;28;20503;-79
2022/03/31 03:22:11;;;;;;;6.18;4.78;;;3.00;99.90;;;;;;5107001;28;20035;-76
2022/03/31 03:24:37;;;;;;;6.07;4.78;;;3.00;99.90;;;;;;5110021;28;20106;-77
2022/03/31 03:27:03;;;;;;;6.18;5.13;;;2.90;99.90;;;;;;5092299;28;20172;-77
2022/03/31 03:29:29;;;;;;;6.85;6.15;;;3.00;99.90;;;;;;5104306;28;20039;-78
2022/03/31 03:31:55;;;;;;;11.13;9.40;;;3.00;99.90;;;;;;5093592;28;20427;-76
2022/03/31 03:34:20;;;;;;;9.95;8.88;;;2.90;99.90;;;;;;5105798;28;20066;-78
2022/03/31 03:36:46;;;;;;;11.02;9.38;;;2.90;99.90;;;;;;5112678;27;20040;-76
2022/03/31 03:39:12;;;;;;;9.38;8.27;;;2.80;99.90;;;;;;5087616;28;20058;-78
2022/03/31 03:41:38;;;;;;;6.80;6.10;;;2.80;99.90;;;;;;5110050;28;20042;-79
2022/03/31 03:44:05;;;;;;;5.60;4.80;;;2.70;99.90;;;;;;5110437;28;20035;-76
2022/03/31 03:46:30;;;;;;;4.28;3.58;;;2.80;99.90;;;;;;5093516;28;20573;-78
2022/03/31 03:48:56;;;;;;;3.80;3.40;;;2.80;99.90;;;;;;5110923;28;20126;-79
2022/03/31 03:51:24;;;;;;;3.50;3.20;;;2.70;99.90;;;;;;5092544;28;20401;-80
2022/03/31 03:53:50;;;;;;;3.90;2.92;;;2.70;99.90;;;;;;5110468;28;20160;-78
2022/03/31 03:56:20;;;;;;;2.95;2.72;;;2.70;99.90;;;;;;5099703;28;20066;-79
2022/03/31 03:58:46;;;;;;;2.60;2.38;;;2.70;99.90;;;;;;5109895;28;20043;-78
2022/03/31 04:01:12;;;;;;;3.38;3.08;;;2.70;99.90;;;;;;5110793;28;20040;-78
2022/03/31 04:03:37;;;;;;;3.63;3.33;;;2.70;99.90;;;;;;5093165;28;20043;-77
2022/03/31 04:06:03;;;;;;;3.35;3.00;;;2.70;99.90;;;;;;5110016;28;20043;-77
2022/03/31 04:08:29;;;;;;;3.53;2.88;;;2.60;99.90;;;;;;5110862;28;20402;-76
2022/03/31 04:10:54;;;;;;;4.75;4.10;;;2.70;99.90;;;;;;5093267;28;20044;-80
2022/03/31 04:13:20;;;;;;;3.90;3.40;;;2.60;99.90;;;;;;5093600;28;20055;-77
2022/03/31 04:15:46;;;;;;;4.60;3.40;;;2.60;99.90;;;;;;5110589;28;20065;-77
2022/03/31 04:18:12;;;;;;;3.95;3.55;;;2.60;99.90;;;;;;5109932;28;20035;-78
2022/03/31 04:20:37;;;;;;;3.72;3.40;;;2.50;99.90;;;;;;5093473;28;20046;-77
2022/03/31 04:23:04;;;;;;;6.68;3.50;;;2.40;99.90;;;;;;5110107;28;20035;-80
2022/03/31 04:25:29;;;;;;;4.47;2.72;;;2.50;99.90;;;;;;5109021;28;20036;-77
2022/03/31 04:27:55;;;;;;;3.10;2.80;;;2.50;99.90;;;;;;5092635;28;20084;-80
2022/03/31 04:30:21;;;;;;;4.57;2.55;;;2.50;99.90;;;;;;5110854;28;20047;-80
2022/03/31 04:32:48;;;;;;;4.10;2.35;;;2.40;99.90;;;;;;5123088;28;20427;-79
2022/03/31 04:35:14;;;;;;;5.60;3.35;;;2.40;99.90;;;;;;5098252;28;20050;-78
2022/03/31 04:37:41;;;;;;;4.88;2.58;;;2.30;99.90;;;;;;5112907;28;20066;-77
2022/03/31 04:40:08;;;;;;;4.07;2.65;;;2.30;99.90;;;;;;5096512;28;20071;-80
2022/03/31 04:42:34;;;;;;;4.25;3.33;;;2.20;99.90;;;;;;5115510;28;20035;-79
2022/03/31 04:45:02;;;;;;;4.68;3.10;;;2.20;99.90;;;;;;5116203;28;20059;-79
2022/03/31 04:47:29;;;;;;;5.65;3.00;;;2.30;99.90;;;;;;5112891;28;20185;-78
2022/03/31 04:49:54;;;;;;;3.38;3.05;;;2.20;99.90;;;;;;5113628;28;20047;-79
2022/03/31 04:52:20;;;;;;;3.28;2.65;;;2.20;99.90;;;;;;5096005;28;20227;-78
2022/03/31 04:54:46;;;;;;;6.38;3.10;;;2.20;99.90;;;;;;5092491;28;20042;-80
2022/03/31 04:57:13;;;;;;;6.07;3.30;;;2.20;99.90;;;;;;5108370;28;20095;-76
2022/03/31 04:59:39;;;;;;;3.42;2.85;;;2.20;99.90;;;;;;5113430;28;20043;-80
2022/03/31 05:02:05;;;;;;;4.68;3.33;;;2.20;99.90;;;;;;5096688;28;20061;-77
2022/03/31 05:04:31;;;;;;;4.10;3.08;;;2.20;99.90;;;;;;5114220;28;20054;-79
2022/03/31 05:06:56;;;;;;;4.55;3.20;;;2.20;99.90;;;;;;5113669;28;20035;-77
2022/03/31 05:09:22;;;;;;;7.68;3.60;;;2.30;99.90;;;;;;5109257;28;20046;-78
2022/03/31 05:11:48;;;;;;;5.85;3.28;;;2.30;99.90;;;;;;5108813;28;20047;-77
2022/03/31 05:14:19;;;;;;;7.30;3.70;;;2.40;99.90;;;;;;5108081;28;20043;-86
2022/03/31 05:16:45;;;;;;;4.63;3.70;;;2.60;99.90;;;;;;5108848;28;20031;-86
2022/03/31 05:19:11;;;;;;;7.82;3.80;;;2.60;99.90;;;;;;5114411;27;20045;-78
2022/03/31 05:21:38;;;;;;;7.78;3.60;;;2.40;99.90;;;;;;5115364;27;20043;-80
2022/03/31 05:24:04;;;;;;;3.70;3.30;;;2.40;99.90;;;;;;5099247;27;20043;-80
2022/03/31 05:26:29;;;;;;;5.32;3.60;;;2.40;99.90;;;;;;5099374;27;20047;-78
2022/03/31 05:28:55;;;;;;;4.22;3.83;;;2.40;99.90;;;;;;5130746;27;20360;-80
2022/03/31 05:31:21;;;;;;;5.35;4.18;;;2.50;99.90;;;;;;5121947;27;20328;-79
2022/03/31 05:33:46;;;;;;;5.57;3.95;;;2.50;99.90;;;;;;5130631;27;20471;-78
2022/03/31 05:36:12;;;;;;;9.20;4.65;;;2.50;99.90;;;;;;5117698;27;20126;-79
2022/03/31 05:38:38;;;;;;;4.43;4.03;;;2.50;99.90;;;;;;5125796;27;20071;-79
2022/03/31 05:41:04;;;;;;;4.63;4.20;;;2.60;99.90;;;;;;5142124;27;20037;-77
2022/03/31 05:43:29;;;;;;;3.20;2.90;;;2.50;99.90;;;;;;5098417;27;20043;-78
2022/03/31 05:45:55;;;;;;;5.03;4.55;;;2.50;99.90;;;;;;5113531;27;20103;-77
2022/03/31 05:48:21;;;;;;;6.85;4.43;;;2.50;99.90;;;;;;5117081;27;20043;-82
2022/03/31 05:50:46;;;;;;;5.35;4.85;;;2.50;99.90;;;;;;5122204;27;20087;-79
2022/03/31 05:53:13;;;;;;;4.38;3.97;;;2.60;99.90;;;;;;5116163;27;20035;-77
2022/03/31 05:55:40;;;;;;;5.05;4.55;;;2.60;99.90;;;;;;5117443;27;20050;-80
2022/03/31 05:58:07;;;;;;;6.22;5.63;;;2.60;99.90;;;;;;5121419;27;20114;-79
2022/03/31 06:00:33;;;;;;;5.57;5.07;;;2.60;99.90;;;;;;5109564;27;20115;-81
2022/03/31 06:02:58;;;;;;;6.53;5.20;;;2.60;99.90;;;;;;5119128;27;20520;-77
2022/03/31 06:05:24;;;;;;;5.95;5.40;;;2.60;99.90;;;;;;5116437;27;20058;-78
2022/03/31 06:07:52;;;;;;;6.28;5.68;;;2.60;99.90;;;;;;5113640;27;20046;-77
2022/03/31 06:10:21;;;;;;;5.97;5.38;;;2.50;99.90;;;;;;5111369;27;20237;-77
2022/03/31 06:12:47;;;;;;;6.45;5.75;;;2.50;99.90;;;;;;5118370;27;20047;-78
2022/03/31 06:15:15;;;;;;;5.72;5.13;;;2.50;99.90;;;;;;5104422;27;20049;-79
2022/03/31 06:17:43;;;;;;;5.65;5.15;;;2.50;99.90;;;;;;5094834;27;20059;-78
2022/03/31 06:20:10;;;;;;;6.82;5.82;;;2.60;99.90;;;;;;5124262;27;20062;-78
2022/03/31 06:22:37;;;;;;;5.40;4.90;;;2.60;99.90;;;;;;5117586;27;20150;-78
2022/03/31 06:25:04;;;;;;;8.85;4.72;;;2.50;99.90;;;;;;5118388;27;20047;-78
2022/03/31 06:27:30;;;;;;;5.07;4.57;;;2.70;99.90;;;;;;5098800;27;20131;-76
2022/03/31 06:29:56;;;;;;;5.50;5.00;;;2.60;99.90;;;;;;5111454;27;20076;-75
2022/03/31 06:32:22;;;;;;;8.20;5.32;;;2.60;99.90;;;;;;5115258;27;20062;-77
2022/03/31 06:34:48;;;;;;;6.13;5.53;;;2.60;99.90;;;;;;5115056;27;20043;-77
2022/03/31 06:37:14;;;;;;;6.45;5.65;;;2.60;99.90;;;;;;5105036;27;20129;-76
2022/03/31 06:39:39;;;;;;;6.10;5.50;;;2.80;99.90;;;;;;5098312;27;20173;-76
2022/03/31 06:42:06;;;;;;;6.72;5.10;;;2.60;99.90;;;;;;5096374;27;20052;-78
2022/03/31 06:44:32;;;;;;;7.32;6.55;;;2.80;99.90;;;;;;5111373;27;20051;-77
2022/03/31 06:46:58;;;;;;;6.80;6.10;;;2.70;99.90;;;;;;5112287;27;20038;-80
2022/03/31 06:49:23;;;;;;;6.43;5.80;;;2.80;99.90;;;;;;5110760;27;20043;-76
2022/03/31 06:51:50;;;;;;;7.03;6.32;;;3.30;99.90;;;;;;5115692;27;20051;-76
2022/03/31 06:54:18;;;;;;;6.57;5.95;;;2.60;99.90;;;;;;5111676;27;20047;-77
2022/03/31 06:56:46;;;;;;;7.15;6.45;;;3.00;99.90;;;;;;5111052;27;20031;-78
2022/03/31 06:59:12;;;;;;;7.05;6.35;;;2.70;99.90;;;;;;5108750;27;20051;-75
2022/03/31 07:01:38;;;;;;;7.13;6.40;;;2.80;99.90;;;;;;5108165;27;20047;-76
2022/03/31 07:04:06;;;;;;;7.63;6.50;;;2.90;99.90;;;;;;5089991;27;20057;-76
2022/03/31 07:06:32;;;;;;;8.48;6.90;;;3.10;99.90;;;;;;5096919;27;20043;-82
2022/03/31 07:08:58;;;;;;;7.75;6.93;;;3.00;99.90;;;;;;5106620;27;20047;-79
2022/03/31 07:11:23;;;;;;;7.35;6.65;;;3.00;99.90;;;;;;5092857;27;20089;-78
2022/03/31 07:13:49;;;;;;;6.93;6.22;;;2.90;99.90;;;;;;5104569;27;20487;-76
2022/03/31 07:16:19;;;;;;;7.82;7.03;;;3.00;99.90;;;;;;5118019;27;20043;-78
2022/03/31 07:18:45;;;;;;;7.90;7.10;;;3.00;99.90;;;;;;5106406;27;20097;-76
2022/03/31 07:21:11;;;;;;;9.23;8.07;;;3.00;99.90;;;;;;5111026;27;20547;-77
2022/03/31 07:23:36;;;;;;;8.93;7.13;;;3.00;99.90;;;;;;5097637;27;20406;-77
2022/03/31 07:26:03;;;;;;;7.38;6.63;;;2.90;99.90;;;;;;5093465;27;20101;-80
2022/03/31 07:28:29;;;;;;;10.15;8.13;;;2.90;99.90;;;;;;5112871;27;20051;-79
2022/03/31 07:30:54;;;;;;;8.23;6.70;;;2.90;99.90;;;;;;5107749;27;20058;-82
2022/03/31 07:33:21;;;;;;;9.50;8.48;;;2.90;99.90;;;;;;5099789;27;20084;-80
2022/03/31 07:35:48;;;;;;;9.02;7.80;;;2.90;99.90;;;;;;5103020;27;20415;-76
2022/03/31 07:38:17;;;;;;;8.93;7.63;;;3.00;99.90;;;;;;5113120;27;20042;-78
2022/03/31 07:40:44;;;;;;;8.93;7.97;;;3.00;99.90;;;;;;5111810;27;20045;-75
2022/03/31 07:43:10;;;;;;;9.27;7.10;;;3.10;99.90;;;;;;5114910;27;20042;-76
2022/03/31 07:45:36;;;;;;;8.55;7.13;;;3.10;99.90;;;;;;5093876;27;20051;-77
2022/03/31 07:48:03;;;;;;;7.95;6.72;;;3.30;99.90;;;;;;5115059;27;20054;-77
2022/03/31 07:50:30;;;;;;;9.48;7.53;;;3.10;99.90;;;;;;5117976;27;20038;-77
2022/03/31 07:52:57;;;;;;;8.15;7.35;;;3.10;99.90;;;;;;5098313;27;20062;-76
2022/03/31 07:55:23;;;;;;;8.13;6.88;;;3.10;99.90;;;;;;5093523;27;20070;-80
2022/03/31 07:57:49;;;;;;;7.95;6.50;;;3.00;99.90;;;;;;5112872;27;20143;-77
2022/03/31 08:00:16;;;;;;;7.38;6.38;;;3.00;99.90;;;;;;5115832;27;20388;-81
2022/03/31 08:02:50;;;;;;;7.03;6.32;;;3.00;99.90;;;;;;5114954;27;20030;-79
2022/03/31 08:05:19;;;;;;;7.65;6.78;;;2.90;99.90;;;;;;5111764;27;20593;-79
2022/03/31 08:07:45;;;;;;;7.15;6.13;;;2.90;99.90;;;;;;5108425;27;20034;-76
2022/03/31 08:10:10;;;;;;;6.95;5.82;;;2.90;99.90;;;;;;5116092;27;20868;-76
2022/03/31 08:12:36;;;;;;;8.10;6.93;;;3.10;99.90;;;;;;5103076;27;20134;-77
2022/03/31 08:15:03;;;;;;;5.95;5.35;;;2.90;99.90;;;;;;5111661;28;20058;-77
2022/03/31 08:17:30;;;;;;;8.15;6.43;;;2.90;99.90;;;;;;5109444;27;20092;-79
2022/03/31 08:19:56;;;;;;;8.07;6.95;;;2.80;99.90;;;;;;5107482;28;20052;-80
2022/03/31 08:22:23;;;;;;;8.70;7.50;;;2.80;99.90;;;;;;5093028;28;20375;-79
2022/03/31 08:24:49;;;;;;;8.32;7.38;;;2.90;99.90;;;;;;5094114;28;20047;-76
2022/03/31 08:27:15;;;;;;;9.40;7.53;;;2.80;99.90;;;;;;5091694;28;20130;-80
2022/03/31 08:29:41;;;;;;;9.25;7.95;;;2.80;99.90;;;;;;5091063;28;20134;-78
2022/03/31 08:32:08;;;;;;;9.20;7.25;;;2.70;99.90;;;;;;5110334;28;20054;-77
2022/03/31 08:34:34;;;;;;;7.75;6.30;;;2.80;99.90;;;;;;5101384;28;20059;-80
2022/03/31 08:37:00;;;;;;;7.63;6.57;;;2.70;99.90;;;;;;5111006;28;20050;-80
2022/03/31 08:39:25;;;;;;;8.15;6.90;;;2.70;99.90;;;;;;5091750;28;20141;-79
2022/03/31 08:41:52;;;;;;;8.48;6.65;;;2.60;99.90;;;;;;5110118;28;20042;-83
2022/03/31 08:44:20;;;;;;;8.63;6.57;;;2.60;99.90;;;;;;5112365;28;20099;-77
2022/03/31 08:46:48;;;;;;;10.23;8.25;;;2.70;99.90;;;;;;5113231;28;20042;-80
2022/03/31 08:49:13;;;;;;;9.13;7.13;;;3.50;99.90;;;;;;5095559;28;20051;-83
2022/03/31 08:51:42;;;;;;;9.10;7.35;;;3.00;99.90;;;;;;5096772;27;20046;-80
2022/03/31 08:54:08;;;;;;;12.20;9.55;;;2.70;99.90;;;;;;5116376;27;20059;-78
2022/03/31 08:56:34;;;;;;;11.73;9.35;;;3.30;99.90;;;;;;5096812;27;20039;-81
2022/03/31 08:59:00;;;;;;;12.23;8.75;;;2.70;99.90;;;;;;5123700;27;20154;-80
2022/03/31 09:01:27;;;;;;;10.88;8.60;;;2.70;99.90;;;;;;5122351;27;20437;-79
2022/03/31 09:03:53;;;;;;;11.90;8.00;;;2.60;99.90;;;;;;5118264;27;20477;-76
2022/03/31 09:06:23;;;;;;;14.80;11.07;;;2.60;99.90;;;;;;5119237;27;20043;-83
2022/03/31 09:08:59;;;;;;;10.20;8.38;;;2.60;99.90;;;;;;5118834;27;20157;-79
2022/03/31 09:11:29;;;;;;;11.55;9.60;;;2.60;99.90;;;;;;5112778;27;20046;-81
2022/03/31 09:13:56;;;;;;;10.70;9.02;;;2.50;99.90;;;;;;5113649;27;20089;-78
2022/03/31 09:16:31;;;;;;;9.65;7.68;;;2.40;99.90;;;;;;5113099;27;20087;-80
2022/03/31 09:19:01;;;;;;;9.67;7.57;;;2.50;99.90;;;;;;5111711;27;20050;-80
2022/03/31 09:21:27;;;;;;;7.85;6.68;;;2.20;99.90;;;;;;5112373;27;20304;-77
2022/03/31 09:23:53;;;;;;;10.40;7.80;;;2.20;99.90;;;;;;5114138;27;20058;-78
2022/03/31 09:26:18;;;;;;;8.73;7.22;;;2.10;99.90;;;;;;5095282;27;20412;-80
2022/03/31 09:28:46;;;;;;;8.23;6.90;;;2.10;99.90;;;;;;5111488;27;20152;-78
2022/03/31 09:31:13;;;;;;;5.90;4.95;;;2.00;99.90;;;;;;5093834;27;20385;-78
2022/03/31 09:33:53;;;;;;;7.47;6.45;;;1.90;99.90;;;;;;5112806;27;20062;-80
2022/03/31 09:36:24;;;;;;;6.93;6.13;;;1.90;99.90;;;;;;5096834;27;20481;-81
2022/03/31 09:38:56;;;;;;;6.25;5.13;;;1.80;99.90;;;;;;5114281;27;20039;-79
2022/03/31 09:41:23;;;;;;;6.40;4.63;;;1.80;99.90;;;;;;5112534;27;20047;-77
2022/03/31 09:43:51;;;;;;;6.85;5.82;;;1.70;99.90;;;;;;5114210;27;20104;-78
2022/03/31 09:46:28;;;;;;;5.70;4.75;;;1.70;99.90;;;;;;5113746;27;20069;-80
2022/03/31 09:48:55;;;;;;;5.75;4.82;;;1.70;99.90;;;;;;5106231;28;20050;-81
2022/03/31 09:51:23;;;;;;;6.35;5.32;;;1.60;99.90;;;;;;5089585;27;20055;-77
2022/03/31 09:53:50;;;;;;;5.47;4.25;;;1.60;99.90;;;;;;5091891;27;20552;-77
2022/03/31 09:56:27;;;;;;;6.53;5.28;;;1.50;99.90;;;;;;5109376;27;20167;-78
2022/03/31 09:58:55;;;;;;;6.20;5.10;;;1.50;99.90;;;;;;5095882;27;20106;-76
2022/03/31 10:01:22;;;;;;;7.70;6.25;;;1.60;99.90;;;;;;5101682;27;20048;-76
2022/03/31 10:03:49;;;;;;;7.65;6.20;;;1.50;99.90;;;;;;5102642;27;20042;-78
2022/03/31 10:06:16;;;;;;;8.60;6.90;;;1.40;99.90;;;;;;5117800;27;20043;-77
2022/03/31 10:08:44;;;;;;;7.28;5.72;;;1.40;99.90;;;;;;5106367;27;20039;-78
2022/03/31 10:11:14;;;;;;;9.15;6.50;;;1.50;99.90;;;;;;5104193;27;20051;-78
2022/03/31 10:13:48;;;;;;;9.82;4.18;;;1.50;99.90;;;;;;5105682;27;20049;-81
2022/03/31 10:16:17;;;;;;;7.43;6.30;;;1.40;99.90;;;;;;5121677;27;20047;-78
2022/03/31 10:18:47;;;;;;;8.27;6.38;;;1.70;99.90;;;;;;5122967;27;20049;-79
2022/03/31 10:21:13;;;;;;;6.53;4.72;;;1.40;99.90;;;;;;5120076;27;20046;-78
2022/03/31 10:26:33;;;;;;;9.88;5.85;;;1.40;99.90;;;;;;5100037;27;20264;-78
2022/03/31 10:29:01;;;;;;;7.82;6.03;;;2.00;99.90;;;;;;5119506;27;20147;-81
2022/03/31 10:31:39;;;;;;;7.88;6.15;;;1.50;99.90;;;;;;5121444;27;20047;-79
2022/03/31 10:34:06;;;;;;;5.70;4.75;;;1.30;99.90;;;;;;5118821;27;20039;-80
2022/03/31 10:36:41;;;;;;;6.05;4.28;;;1.30;99.90;;;;;;5097719;27;20177;-80
2022/03/31 10:39:15;;;;;;;6.95;4.68;;;1.30;99.90;;;;;;5094504;27;20047;-77
2022/03/31 10:41:42;;;;;;;6.57;5.05;;;1.30;99.90;;;;;;5110658;27;20087;-79
2022/03/31 10:44:11;;;;;;;6.43;5.15;;;1.20;99.90;;;;;;5103507;27;20044;-78
2022/03/31 10:46:38;;;;;;;4.95;3.95;;;1.20;99.90;;;;;;5093501;28;20039;-80
2022/03/31 10:49:09;;;;;;;5.63;3.88;;;1.20;99.90;;;;;;5109452;27;20403;-78
2022/03/31 10:51:37;;;;;;;5.57;4.13;;;1.20;99.90;;;;;;5118023;27;20150;-78
2022/03/31 10:54:04;;;;;;;4.60;4.00;;;1.30;99.90;;;;;;5099063;27;20042;-81
2022/03/31 10:56:31;;;;;;;4.32;3.50;;;1.80;99.90;;;;;;5113263;27;20370;-80
2022/03/31 10:59:00;;;;;;;5.35;4.28;;;1.30;99.90;;;;;;5110954;27;20118;-79
2022/03/31 11:01:37;;;;;;;5.55;3.95;;;1.20;99.90;;;;;;5095709;27;20070;-80
2022/03/31 11:04:08;;;;;;;6.85;5.00;;;1.40;99.90;;;;;;5109803;27;20126;-77
2022/03/31 11:06:48;;;;;;;6.80;4.65;;;1.40;99.90;;;;;;5098350;27;20434;-78
2022/03/31 11:09:31;;;;;;;6.70;4.57;;;1.30;99.90;;;;;;5080051;27;20045;-77
2022/03/31 11:11:59;;;;;;;4.72;4.22;;;1.40;99.90;;;;;;5109014;27;20039;-78
2022/03/31 11:14:25;;;;;;;6.13;3.78;;;1.30;99.90;;;;;;5117343;27;20128;-76
2022/03/31 11:16:52;;;;;;;5.82;4.35;;;1.30;99.90;;;;;;5119867;27;20062;-78
2022/03/31 11:19:21;;;;;;;4.95;4.45;;;1.20;99.90;;;;;;5091807;27;20046;-76
2022/03/31 11:21:48;;;;;;;3.90;3.50;;;1.20;99.90;;;;;;5116114;27;20055;-79
2022/03/31 11:24:14;;;;;;;4.75;4.20;;;1.20;99.90;;;;;;5091904;27;20049;-79
2022/03/31 11:26:44;;;;;;;5.03;4.18;;;1.20;99.90;;;;;;5127206;27;20060;-77
2022/03/31 11:29:12;;;;;;;5.00;4.50;;;1.20;99.90;;;;;;5095796;27;20089;-80
2022/03/31 11:32:02;;;;;;;5.72;3.95;;;1.40;99.90;;;;;;5096571;27;20039;-75
2022/03/31 11:34:28;;;;;;;5.55;4.10;;;1.10;99.90;;;;;;5112934;27;20085;-77
2022/03/31 11:36:55;;;;;;;5.35;4.18;;;1.10;99.90;;;;;;5093315;27;20055;-77
2022/03/31 11:39:28;;;;;;;3.92;3.05;;;1.10;99.90;;;;;;5095051;27;20043;-77
2022/03/31 11:41:54;;;;;;;7.65;4.70;;;1.00;99.90;;;;;;5091623;27;20047;-77
2022/03/31 11:44:21;;;;;;;5.20;4.03;;;1.30;99.90;;;;;;5104779;27;20039;-78
2022/03/31 11:46:49;;;;;;;5.28;3.42;;;1.70;99.90;;;;;;5108772;27;20043;-79
2022/03/31 11:49:24;;;;;;;5.10;4.40;;;0.90;99.90;;;;;;5092875;28;20122;-81
2022/03/31 11:51:50;;;;;;;6.20;5.38;;;0.90;99.90;;;;;;5089441;27;20136;-79
2022/03/31 11:54:17;;;;;;;6.35;4.95;;;0.80;99.90;;;;;;5093101;28;20062;-76
2022/03/31 11:56:42;;;;;;;6.22;5.63;;;0.80;99.90;;;;;;5109301;27;20050;-79
2022/03/31 11:59:08;;;;;;;4.13;3.08;;;1.50;99.90;;;;;;5110937;27;20039;-82
2022/03/31 12:01:37;;;;;;;5.03;4.07;;;0.80;99.90;;;;;;5105307;27;20042;-77
2022/03/31 12:04:04;;;;;;;4.32;3.65;;;0.80;99.90;;;;;;5108284;27;20055;-80
2022/03/31 12:06:33;;;;;;;4.95;3.67;;;0.80;99.90;;;;;;5102641;27;20623;-82
2022/03/31 12:08:59;;;;;;;5.20;4.30;;;0.80;99.90;;;;;;5098282;27;20141;-75
2022/03/31 12:11:25;;;;;;;4.45;3.17;;;0.80;99.90;;;;;;5110988;27;20131;-79
2022/03/31 12:13:53;;;;;;;5.00;4.07;;;0.90;99.90;;;;;;5109271;27;20095;-79
2022/03/31 12:16:21;;;;;;;5.57;4.32;;;1.40;99.90;;;;;;5108835;27;20046;-77
2022/03/31 12:19:07;;;;;;;6.30;4.75;;;0.90;99.90;;;;;;5108679;27;20458;-77
2022/03/31 12:21:47;;;;;;;5.28;4.28;;;0.80;99.90;;;;;;5108851;28;20047;-76
2022/03/31 12:24:14;;;;;;;6.43;5.47;;;0.90;99.90;;;;;;5090786;28;20949;-76
2022/03/31 12:26:53;;;;;;;6.55;4.57;;;0.80;99.90;;;;;;5097868;27;20054;-76
2022/03/31 12:29:22;;;;;;;7.45;6.30;;;0.90;99.90;;;;;;5097510;27;20129;-77
2022/03/31 12:31:58;;;;;;;8.60;6.25;;;0.90;99.90;;;;;;5125421;27;20046;-77
2022/03/31 12:34:24;;;;;;;7.22;5.38;;;1.00;99.90;;;;;;5115424;27;20108;-77
2022/03/31 12:36:49;;;;;;;8.10;5.97;;;0.90;99.90;;;;;;5093585;28;20044;-78
2022/03/31 12:39:15;;;;;;;13.68;6.90;;;0.90;99.90;;;;;;5111857;28;20604;-75
2022/03/31 12:41:42;;;;;;;7.03;5.75;;;1.00;99.90;;;;;;5115251;28;20074;-76
2022/03/31 12:44:09;;;;;;;9.27;6.97;;;0.90;99.90;;;;;;5116326;28;20546;-77
2022/03/31 12:46:43;;;;;;;8.65;5.65;;;1.00;99.90;;;;;;5121169;27;20052;-77
2022/03/31 12:49:14;;;;;;;8.93;6.65;;;1.00;99.90;;;;;;5093145;28;20074;-79
2022/03/31 12:51:53;;;;;;;8.65;6.82;;;0.90;99.90;;;;;;5096145;28;20497;-81
2022/03/31 12:54:22;;;;;;;8.43;6.70;;;1.00;99.90;;;;;;5116086;27;20107;-78
2022/03/31 12:56:49;;;;;;;7.15;5.38;;;1.00;99.90;;;;;;5099049;27;20076;-79
2022/03/31 12:59:20;;;;;;;6.38;4.93;;;0.90;99.90;;;;;;5109052;28;20048;-77